Weather observations for the past three days for
Albert Whitted Airport
Imperial (Metric)
Date Time (edt) Wind (mph) Vis. (mi.) Weather Sky Cond. Temperature (ºF) Relative Humidity Wind Chill (°F) Heat Index (°F) Pressure Precipitation (in)
Air Dwpt 6 hour altimeter (in) sea level (mb) 1 hr 3 hr 6 hr
Max. Min.
06 14:53 W 10 G 18 10.00 Mostly Cloudy BKN036 BKN047 88 75 66% 98 29.88 1011.7
06 13:53 SE 8 10.00 Partly Cloudy FEW024 SCT043 86 77 89.1 81 75% 97 29.89 1012.3 0.14
06 12:53 Calm 10.00 Fair CLR 86 78.1 77% 98 29.91 1012.9 0.02
06 11:53 N 8 10.00 Thunderstorm in Vicinity FEW025 BKN029 OVC050 82 75.9 82% 89 29.94 1013.7
06 10:53 E 7 0.75 Thunderstorm in Vicinity Heavy Rain FEW028 BKN033 OVC060 81 75 82% 87 29.93 1013.6 0.12 0.12
06 09:53 Vrbl 5 10.00 Partly Cloudy SCT027 87.1 75.9 70% 98 29.93 1013.6
06 08:53 Calm 10.00 Fair CLR 84.9 75.9 75% 94 29.92 1013.2
06 07:53 Calm 10.00 A Few Clouds FEW034 84 77 84.9 82 80% 94 29.91 1012.6
06 06:53 N 3 10.00 Fair CLR 82.9 77 82% 92 29.89 1011.9
06 05:53 N 3 10.00 Fair CLR 84 77 80% 94 29.86 1011.2
06 04:53 SW 3 10.00 Fair CLR 82.9 78.1 85% 93 29.85 1010.7
06 03:53 SW 3 10.00 Fair CLR 82.9 77 82% 92 29.85 1010.8
06 02:53 N 3 10.00 Fair CLR 84 77 80% 94 29.87 1011.5
06 01:53 N 3 10.00 Partly Cloudy SCT023 84.9 77 87.1 84 77% 95 29.9 1012.4
06 00:53 W 3 10.00 Fair CLR 84.9 77 77% 95 29.9 1012.5
05 23:53 Calm 10.00 Fair CLR 84.9 75.9 75% 94 29.91 1012.8
05 22:53 S 3 10.00 Fair CLR 84.9 75.9 75% 94 29.91 1012.8
05 21:53 Calm 10.00 Fair CLR 86 75.9 72% 96 29.91 1012.6
05 20:53 NW 6 10.00 Fair CLR 86 75.9 72% 96 29.89 1012.1
05 19:53 NW 8 10.00 Fair CLR 87.1 75 90 87.1 67% 97 29.89 1012.1
05 18:53 N 10 10.00 Fair CLR 88 75 66% 98 29.89 1012.2
05 17:53 Vrbl 5 10.00 Fair CLR 89.1 73.9 61% 98 29.89 1012.1
05 16:53 W 12 10.00 A Few Clouds FEW037 89.1 75.9 65% 100 29.89 1012.2
05 13:53 W 12 G 17 10.00 A Few Clouds FEW036 89.1 75 90 82.9 63% 99 29.92 1013.3
05 12:53 SW 7 10.00 Fair CLR 89.1 75 63% 99 29.94 1013.9
05 11:53 W 7 10.00 Fair CLR 88 75 66% 98 29.96 1014.5
05 10:53 S 8 10.00 Overcast BKN021 OVC027 87.1 79 77% 101 29.96 1014.4
05 09:53 Calm 10.00 Overcast BKN021 BKN033 OVC045 84.9 78.1 80% 97 29.96 1014.3
05 08:53 SW 6 10.00 Fair CLR 84.9 78.1 80% 97 29.95 1014.2
05 07:53 Vrbl 3 10.00 Fair CLR 82.9 79 84 82 88% 94 29.95 1014.1
05 06:53 S 8 10.00 Fair CLR 82 78.1 88% 91 29.94 1013.7
05 05:53 S 8 10.00 A Few Clouds FEW023 82.9 78.1 85% 93 29.93 1013.4
05 04:53 S 8 10.00 Fair CLR 82.9 79 88% 94 29.92 1013.0
05 03:53 SE 9 10.00 Fair CLR 82.9 78.1 85% 93 29.92 1013.0
05 02:53 SE 10 10.00 Partly Cloudy SCT019 82.9 78.1 85% 93 29.92 1013.2
05 01:53 SE 8 10.00 Mostly Cloudy BKN022 BKN028 84 79 87.1 84 85% 96 29.94 1013.7
05 00:53 Calm 10.00 Fair CLR 84.9 78.1 80% 97 29.95 1014.2
04 23:53 Calm 10.00 Fair CLR 84.9 77 77% 95 29.96 1014.4
04 22:53 Calm 10.00 Fair CLR 86 77 75% 97 29.97 1014.7
04 21:53 W 5 10.00 Fair CLR 86 77 75% 97 29.96 1014.6
04 20:53 Vrbl 3 10.00 Fair CLR 87.1 75.9 70% 98 29.96 1014.3
04 19:53 W 7 10.00 Fair CLR 87.1 75.9 90 87.1 70% 98 29.95 1014.2
04 18:53 W 6 10.00 Fair CLR 88 77 70% 100 29.93 1013.4
04 17:53 W 10 10.00 Fair CLR 88 75.9 68% 99 29.93 1013.4
04 16:53 SW 12 G 18 10.00 A Few Clouds FEW031 89.1 75.9 65% 100 29.92 1012.9
04 15:53 W 12 10.00 Partly Cloudy SCT031 89.1 77 68% 102 29.93 1013.5
04 14:53 SW 13 G 18 10.00 A Few Clouds FEW031 FEW042 90 75.9 63% 102 29.95 1014.0
04 13:53 SW 9 10.00 Fair CLR 90 75.9 91 82 63% 102 29.97 1014.7
04 12:53 SW 9 10.00 A Few Clouds FEW034 89.1 75 63% 99 29.98 1015.3
04 11:53 S 8 10.00 A Few Clouds FEW028 88 78.1 73% 102 29.99 1015.6
04 10:53 S 9 10.00 A Few Clouds FEW018 87.1 78.1 75% 100 29.98 1015.1
04 09:53 SE 5 10.00 Fair CLR 84.9 79 82% 98 29.98 1015.1
04 08:53 S 7 10.00 Fair CLR 82.9 79 88% 94 29.96 1014.5
04 07:53 S 8 10.00 Fair CLR 82 78.1 82 80.1 88% 91 29.95 1014.2
04 06:53 S 9 10.00 Mostly Cloudy BKN100 81 78.1 91% 89 29.93 1013.6
04 05:53 S 10 10.00 A Few Clouds FEW085 81 78.1 91% 89 29.92 1013.2
04 04:53 S 9 10.00 Fair CLR 81 78.1 91% 89 29.91 1012.8
04 03:53 SE 7 10.00 Fair CLR 80.1 77 90% 86 29.92 1013.0
04 02:53 SE 10 10.00 Fair CLR 80.1 77 90% 86 29.92 1013.0
04 01:53 SE 15 10.00 Fair CLR 80.1 77 82.9 80.1 90% 86 29.93 1013.3
04 00:53 SE 17 10.00 Fair CLR 81 78.1 91% 89 29.93 1013.4
03 23:53 SE 14 10.00 A Few Clouds FEW028 81 77 88% 88 29.94 1013.7
03 22:53 SE 12 10.00 Fair CLR 81 75.9 85% 87 29.94 1013.9
03 21:53 SE 12 10.00 Light Rain BKN017 OVC025 82 77 85% 90 29.94 1013.6
03 20:53 E 8 10.00 Thunderstorm SCT027 82 78.1 88% 91 29.92 1013.2
03 19:53 Calm 10.00 Fair CLR 86 75.9 89.1 84 72% 96 29.92 1013.0
03 18:53 SW 6 10.00 Fair CLR 86 77 75% 97 29.9 1012.5
03 17:53 SW 5 10.00 A Few Clouds FEW075 86 77 75% 97 29.89 1012.1
03 16:53 SW 5 10.00 Fair CLR 87.1 77 72% 99 29.89 1012.0
03 15:53 SW 7 10.00 Fair CLR 84.9 78.1 80% 97 29.9 1012.5
Date Time (edt) Wind (mph) Vis. (mi.) Weather Sky Cond. Air Dwpt Max. Min. Relative Humidity Wind Chill (°F) Heat Index (°F) altimeter (in) sea level (mb) 1 hr 3 hr 6 hr
6 hour
Temperature (ºF) Pressure Precipitation (in)